sensor_id;sensor_type;location;lat;lon;timestamp;pressure;altitude;pressure_sealevel;temperature;humidity
77086;BME280;66014;53.134;18.006;2024-02-04T00:00:35;100620.90;;;6.92;77.91
77086;BME280;66014;53.134;18.006;2024-02-04T00:03:23;100613.40;;;6.93;77.92
77086;BME280;66014;53.134;18.006;2024-02-04T00:05:50;100617.05;;;6.94;77.79
77086;BME280;66014;53.134;18.006;2024-02-04T00:08:17;100621.41;;;6.94;77.84
77086;BME280;66014;53.134;18.006;2024-02-04T00:10:44;100628.50;;;6.96;77.98
77086;BME280;66014;53.134;18.006;2024-02-04T00:13:10;100623.80;;;6.95;78.67
77086;BME280;66014;53.134;18.006;2024-02-04T00:15:57;100618.20;;;6.93;79.02
77086;BME280;66014;53.134;18.006;2024-02-04T00:18:41;100623.21;;;6.87;79.43
77086;BME280;66014;53.134;18.006;2024-02-04T00:21:08;100613.95;;;6.83;79.65
77086;BME280;66014;53.134;18.006;2024-02-04T00:23:34;100604.49;;;6.79;79.58
77086;BME280;66014;53.134;18.006;2024-02-04T00:26:01;100598.11;;;6.74;79.50
77086;BME280;66014;53.134;18.006;2024-02-04T00:28:27;100592.02;;;6.70;79.35
77086;BME280;66014;53.134;18.006;2024-02-04T00:30:54;100592.58;;;6.66;79.11
77086;BME280;66014;53.134;18.006;2024-02-04T00:33:22;100603.99;;;6.65;79.04
77086;BME280;66014;53.134;18.006;2024-02-04T00:35:49;100606.79;;;6.63;78.83
77086;BME280;66014;53.134;18.006;2024-02-04T00:38:16;100614.27;;;6.63;78.63
77086;BME280;66014;53.134;18.006;2024-02-04T00:40:42;100613.70;;;6.63;78.20
77086;BME280;66014;53.134;18.006;2024-02-04T00:43:09;100604.15;;;6.63;77.86
77086;BME280;66014;53.134;18.006;2024-02-04T00:45:36;100607.77;;;6.64;77.73
77086;BME280;66014;53.134;18.006;2024-02-04T00:48:03;100610.94;;;6.66;77.72
77086;BME280;66014;53.134;18.006;2024-02-04T00:50:31;100613.16;;;6.66;77.81
77086;BME280;66014;53.134;18.006;2024-02-04T00:52:58;100613.96;;;6.67;78.18
77086;BME280;66014;53.134;18.006;2024-02-04T00:55:24;100609.13;;;6.66;78.34
77086;BME280;66014;53.134;18.006;2024-02-04T00:57:51;100601.88;;;6.65;78.41
77086;BME280;66014;53.134;18.006;2024-02-04T01:00:17;100600.74;;;6.64;78.47
77086;BME280;66014;53.134;18.006;2024-02-04T01:02:44;100603.73;;;6.62;78.62
77086;BME280;66014;53.134;18.006;2024-02-04T01:05:10;100603.34;;;6.61;78.95
77086;BME280;66014;53.134;18.006;2024-02-04T01:07:37;100598.72;;;6.59;79.17
77086;BME280;66014;53.134;18.006;2024-02-04T01:10:04;100606.02;;;6.59;79.25
77086;BME280;66014;53.134;18.006;2024-02-04T01:12:30;100604.73;;;6.57;79.20
77086;BME280;66014;53.134;18.006;2024-02-04T01:14:57;100603.71;;;6.57;79.15
77086;BME280;66014;53.134;18.006;2024-02-04T01:17:23;100600.17;;;6.57;78.99
77086;BME280;66014;53.134;18.006;2024-02-04T01:19:50;100590.97;;;6.58;78.92
77086;BME280;66014;53.134;18.006;2024-02-04T01:22:16;100585.06;;;6.58;78.78
77086;BME280;66014;53.134;18.006;2024-02-04T01:24:44;100582.61;;;6.58;78.56
77086;BME280;66014;53.134;18.006;2024-02-04T01:27:10;100595.91;;;6.59;78.49
77086;BME280;66014;53.134;18.006;2024-02-04T01:29:37;100598.02;;;6.60;78.37
77086;BME280;66014;53.134;18.006;2024-02-04T01:32:04;100600.78;;;6.60;78.35
77086;BME280;66014;53.134;18.006;2024-02-04T01:34:31;100603.77;;;6.60;78.33
77086;BME280;66014;53.134;18.006;2024-02-04T01:36:58;100600.23;;;6.60;78.25
77086;BME280;66014;53.134;18.006;2024-02-04T01:39:24;100598.33;;;6.60;78.13
77086;BME280;66014;53.134;18.006;2024-02-04T01:41:51;100598.28;;;6.59;77.79
77086;BME280;66014;53.134;18.006;2024-02-04T01:44:17;100593.75;;;6.56;77.39
77086;BME280;66014;53.134;18.006;2024-02-04T01:46:45;100594.16;;;6.56;76.78
77086;BME280;66014;53.134;18.006;2024-02-04T01:49:11;100593.40;;;6.56;76.65
77086;BME280;66014;53.134;18.006;2024-02-04T01:51:38;100574.89;;;6.56;76.34
77086;BME280;66014;53.134;18.006;2024-02-04T01:54:05;100565.67;;;6.55;76.35
77086;BME280;66014;53.134;18.006;2024-02-04T01:56:33;100569.73;;;6.53;76.17
77086;BME280;66014;53.134;18.006;2024-02-04T01:59:01;100571.04;;;6.50;76.14
77086;BME280;66014;53.134;18.006;2024-02-04T02:01:28;100574.53;;;6.48;76.29
77086;BME280;66014;53.134;18.006;2024-02-04T02:03:54;100566.41;;;6.46;76.02
77086;BME280;66014;53.134;18.006;2024-02-04T02:06:22;100561.58;;;6.43;75.96
77086;BME280;66014;53.134;18.006;2024-02-04T02:08:49;100574.13;;;6.41;76.02
77086;BME280;66014;53.134;18.006;2024-02-04T02:11:27;100575.65;;;6.38;75.22
77086;BME280;66014;53.134;18.006;2024-02-04T02:14:02;100582.99;;;6.37;74.97
77086;BME280;66014;53.134;18.006;2024-02-04T02:16:32;100595.69;;;6.37;75.03
77086;BME280;66014;53.134;18.006;2024-02-04T02:19:11;100590.00;;;6.36;74.39
77086;BME280;66014;53.134;18.006;2024-02-04T02:22:04;100590.54;;;6.34;74.76
77086;BME280;66014;53.134;18.006;2024-02-04T02:24:38;100583.77;;;6.31;74.94
77086;BME280;66014;53.134;18.006;2024-02-04T02:27:05;100584.08;;;6.28;75.14
77086;BME280;66014;53.134;18.006;2024-02-04T02:29:32;100587.60;;;6.25;75.30
77086;BME280;66014;53.134;18.006;2024-02-04T02:31:59;100586.55;;;6.21;75.47
77086;BME280;66014;53.134;18.006;2024-02-04T02:34:27;100589.75;;;6.17;75.69
77086;BME280;66014;53.134;18.006;2024-02-04T02:37:00;100588.25;;;6.13;75.95
77086;BME280;66014;53.134;18.006;2024-02-04T02:39:44;100579.13;;;6.07;76.14
77086;BME280;66014;53.134;18.006;2024-02-04T02:42:13;100568.77;;;6.02;76.28
77086;BME280;66014;53.134;18.006;2024-02-04T02:44:41;100564.80;;;5.97;76.06
77086;BME280;66014;53.134;18.006;2024-02-04T02:47:08;100568.50;;;5.94;75.99
77086;BME280;66014;53.134;18.006;2024-02-04T02:49:35;100571.14;;;5.90;76.12
77086;BME280;66014;53.134;18.006;2024-02-04T02:52:03;100579.77;;;5.87;76.16
77086;BME280;66014;53.134;18.006;2024-02-04T02:54:30;100596.05;;;5.84;76.22
77086;BME280;66014;53.134;18.006;2024-02-04T02:56:57;100601.88;;;5.80;76.41
77086;BME280;66014;53.134;18.006;2024-02-04T02:59:23;100602.80;;;5.78;76.54
77086;BME280;66014;53.134;18.006;2024-02-04T03:01:50;100607.52;;;5.76;76.60
77086;BME280;66014;53.134;18.006;2024-02-04T03:04:16;100607.98;;;5.75;76.76
77086;BME280;66014;53.134;18.006;2024-02-04T03:06:43;100615.59;;;5.75;76.46
77086;BME280;66014;53.134;18.006;2024-02-04T03:09:09;100613.77;;;5.75;76.09
77086;BME280;66014;53.134;18.006;2024-02-04T03:11:36;100610.29;;;5.77;75.68
77086;BME280;66014;53.134;18.006;2024-02-04T03:14:04;100617.33;;;5.79;75.58
77086;BME280;66014;53.134;18.006;2024-02-04T03:16:30;100618.30;;;5.82;75.36
77086;BME280;66014;53.134;18.006;2024-02-04T03:18:57;100617.59;;;5.85;75.19
77086;BME280;66014;53.134;18.006;2024-02-04T03:21:23;100615.10;;;5.87;75.08
77086;BME280;66014;53.134;18.006;2024-02-04T03:23:50;100621.59;;;5.89;74.97
77086;BME280;66014;53.134;18.006;2024-02-04T03:26:17;100618.63;;;5.91;74.75
77086;BME280;66014;53.134;18.006;2024-02-04T03:28:46;100615.61;;;5.93;74.76
77086;BME280;66014;53.134;18.006;2024-02-04T03:31:19;100614.66;;;5.94;74.53
77086;BME280;66014;53.134;18.006;2024-02-04T03:33:48;100618.49;;;5.96;74.51
77086;BME280;66014;53.134;18.006;2024-02-04T03:36:21;100619.73;;;5.97;74.38
77086;BME280;66014;53.134;18.006;2024-02-04T03:38:50;100619.23;;;5.99;74.38
77086;BME280;66014;53.134;18.006;2024-02-04T03:41:17;100621.70;;;5.99;74.17
77086;BME280;66014;53.134;18.006;2024-02-04T03:43:44;100622.45;;;5.98;74.50
77086;BME280;66014;53.134;18.006;2024-02-04T03:46:14;100628.94;;;5.99;74.17
77086;BME280;66014;53.134;18.006;2024-02-04T03:48:41;100625.48;;;5.98;74.14
77086;BME280;66014;53.134;18.006;2024-02-04T03:51:08;100628.02;;;5.98;74.33
77086;BME280;66014;53.134;18.006;2024-02-04T03:53:35;100628.11;;;5.96;74.20
77086;BME280;66014;53.134;18.006;2024-02-04T03:56:01;100634.04;;;5.95;74.25
77086;BME280;66014;53.134;18.006;2024-02-04T03:58:28;100634.58;;;5.95;74.24
77086;BME280;66014;53.134;18.006;2024-02-04T04:00:57;100626.75;;;5.94;74.25
77086;BME280;66014;53.134;18.006;2024-02-04T04:03:24;100617.94;;;5.94;74.34
77086;BME280;66014;53.134;18.006;2024-02-04T04:05:52;100609.02;;;5.94;74.36
77086;BME280;66014;53.134;18.006;2024-02-04T04:08:19;100597.68;;;5.93;74.51
77086;BME280;66014;53.134;18.006;2024-02-04T04:10:46;100600.41;;;5.92;74.35
77086;BME280;66014;53.134;18.006;2024-02-04T04:13:13;100599.56;;;5.89;74.29
77086;BME280;66014;53.134;18.006;2024-02-04T04:15:40;100598.89;;;5.89;74.40
77086;BME280;66014;53.134;18.006;2024-02-04T04:18:08;100602.10;;;5.89;74.25
77086;BME280;66014;53.134;18.006;2024-02-04T04:20:38;100600.77;;;5.90;74.33
77086;BME280;66014;53.134;18.006;2024-02-04T04:23:04;100602.02;;;5.91;74.53
77086;BME280;66014;53.134;18.006;2024-02-04T04:25:31;100601.24;;;5.94;74.51
77086;BME280;66014;53.134;18.006;2024-02-04T04:27:58;100597.16;;;5.96;74.32
77086;BME280;66014;53.134;18.006;2024-02-04T04:30:25;100593.31;;;5.98;74.59
77086;BME280;66014;53.134;18.006;2024-02-04T04:32:52;100596.75;;;5.98;74.63
77086;BME280;66014;53.134;18.006;2024-02-04T04:35:18;100598.45;;;5.99;74.48
77086;BME280;66014;53.134;18.006;2024-02-04T04:37:45;100593.78;;;6.00;74.71
77086;BME280;66014;53.134;18.006;2024-02-04T04:40:12;100589.95;;;6.01;74.81
77086;BME280;66014;53.134;18.006;2024-02-04T04:42:38;100588.41;;;6.03;74.86
77086;BME280;66014;53.134;18.006;2024-02-04T04:45:05;100590.95;;;6.03;74.93
77086;BME280;66014;53.134;18.006;2024-02-04T04:47:34;100588.58;;;6.04;74.98
77086;BME280;66014;53.134;18.006;2024-02-04T04:50:01;100589.34;;;6.06;75.00
77086;BME280;66014;53.134;18.006;2024-02-04T04:52:27;100589.21;;;6.07;75.06
77086;BME280;66014;53.134;18.006;2024-02-04T04:54:54;100585.88;;;6.07;74.94
77086;BME280;66014;53.134;18.006;2024-02-04T04:57:22;100584.60;;;6.06;74.93
77086;BME280;66014;53.134;18.006;2024-02-04T04:59:49;100589.33;;;6.04;75.12
77086;BME280;66014;53.134;18.006;2024-02-04T05:02:15;100584.98;;;6.03;75.15
77086;BME280;66014;53.134;18.006;2024-02-04T05:07:54;100576.96;;;6.01;75.23
77086;BME280;66014;53.134;18.006;2024-02-04T05:10:20;100568.72;;;5.98;75.13
77086;BME280;66014;53.134;18.006;2024-02-04T05:12:49;100567.02;;;5.98;75.22
77086;BME280;66014;53.134;18.006;2024-02-04T05:15:16;100569.72;;;5.97;75.16
77086;BME280;66014;53.134;18.006;2024-02-04T05:17:43;100566.89;;;5.98;75.14
77086;BME280;66014;53.134;18.006;2024-02-04T05:20:09;100568.36;;;5.97;74.96
77086;BME280;66014;53.134;18.006;2024-02-04T05:22:37;100565.48;;;5.96;74.91
77086;BME280;66014;53.134;18.006;2024-02-04T05:25:04;100560.29;;;5.95;74.88
77086;BME280;66014;53.134;18.006;2024-02-04T05:27:35;100555.13;;;5.93;74.96
77086;BME280;66014;53.134;18.006;2024-02-04T05:30:05;100551.02;;;5.91;74.91
77086;BME280;66014;53.134;18.006;2024-02-04T05:32:32;100553.36;;;5.88;74.83
77086;BME280;66014;53.134;18.006;2024-02-04T05:34:59;100559.90;;;5.86;74.79
77086;BME280;66014;53.134;18.006;2024-02-04T05:37:25;100556.83;;;5.85;74.87
77086;BME280;66014;53.134;18.006;2024-02-04T05:39:52;100543.70;;;5.84;74.73
77086;BME280;66014;53.134;18.006;2024-02-04T05:42:18;100547.70;;;5.83;74.85
77086;BME280;66014;53.134;18.006;2024-02-04T05:44:45;100546.02;;;5.82;74.42
77086;BME280;66014;53.134;18.006;2024-02-04T05:47:11;100542.94;;;5.80;74.62
77086;BME280;66014;53.134;18.006;2024-02-04T05:49:38;100539.23;;;5.78;74.59
77086;BME280;66014;53.134;18.006;2024-02-04T05:52:20;100536.09;;;5.76;74.64
77086;BME280;66014;53.134;18.006;2024-02-04T05:55:29;100540.61;;;5.73;74.60
77086;BME280;66014;53.134;18.006;2024-02-04T05:58:04;100552.05;;;5.67;74.50
77086;BME280;66014;53.134;18.006;2024-02-04T06:00:42;100547.02;;;5.65;74.70
77086;BME280;66014;53.134;18.006;2024-02-04T06:03:12;100549.60;;;5.62;74.74
77086;BME280;66014;53.134;18.006;2024-02-04T06:05:41;100542.45;;;5.60;74.55
77086;BME280;66014;53.134;18.006;2024-02-04T06:08:08;100542.58;;;5.60;74.65
77086;BME280;66014;53.134;18.006;2024-02-04T06:10:34;100543.39;;;5.59;74.39
77086;BME280;66014;53.134;18.006;2024-02-04T06:13:01;100541.41;;;5.58;74.54
77086;BME280;66014;53.134;18.006;2024-02-04T06:15:28;100538.42;;;5.54;74.37
77086;BME280;66014;53.134;18.006;2024-02-04T06:17:55;100539.02;;;5.52;74.17
77086;BME280;66014;53.134;18.006;2024-02-04T06:20:22;100541.06;;;5.49;74.07
77086;BME280;66014;53.134;18.006;2024-02-04T06:22:48;100543.95;;;5.46;74.09
77086;BME280;66014;53.134;18.006;2024-02-04T06:25:16;100545.41;;;5.44;74.33
77086;BME280;66014;53.134;18.006;2024-02-04T06:27:43;100547.25;;;5.41;74.54
77086;BME280;66014;53.134;18.006;2024-02-04T06:30:10;100549.98;;;5.38;74.60
77086;BME280;66014;53.134;18.006;2024-02-04T06:32:37;100551.58;;;5.37;74.73
77086;BME280;66014;53.134;18.006;2024-02-04T06:35:27;100545.39;;;5.35;74.79
77086;BME280;66014;53.134;18.006;2024-02-04T06:37:54;100551.34;;;5.37;74.89
77086;BME280;66014;53.134;18.006;2024-02-04T06:40:29;100548.57;;;5.38;74.89
77086;BME280;66014;53.134;18.006;2024-02-04T06:42:56;100552.11;;;5.40;75.04
77086;BME280;66014;53.134;18.006;2024-02-04T06:45:22;100551.35;;;5.41;75.07
77086;BME280;66014;53.134;18.006;2024-02-04T06:47:50;100546.00;;;5.41;75.11
77086;BME280;66014;53.134;18.006;2024-02-04T06:50:19;100543.80;;;5.42;75.13
77086;BME280;66014;53.134;18.006;2024-02-04T06:52:46;100542.33;;;5.43;75.00
77086;BME280;66014;53.134;18.006;2024-02-04T06:55:12;100542.48;;;5.45;75.08
77086;BME280;66014;53.134;18.006;2024-02-04T06:57:39;100541.66;;;5.46;74.97
77086;BME280;66014;53.134;18.006;2024-02-04T07:00:07;100542.60;;;5.47;74.99
77086;BME280;66014;53.134;18.006;2024-02-04T07:02:36;100541.41;;;5.47;75.01
77086;BME280;66014;53.134;18.006;2024-02-04T07:05:03;100540.48;;;5.47;75.10
77086;BME280;66014;53.134;18.006;2024-02-04T07:07:52;100542.02;;;5.48;75.05
77086;BME280;66014;53.134;18.006;2024-02-04T07:10:18;100542.88;;;5.48;74.80
77086;BME280;66014;53.134;18.006;2024-02-04T07:12:46;100540.74;;;5.48;74.78
77086;BME280;66014;53.134;18.006;2024-02-04T07:15:18;100541.25;;;5.50;74.73
77086;BME280;66014;53.134;18.006;2024-02-04T07:17:46;100537.61;;;5.52;74.80
77086;BME280;66014;53.134;18.006;2024-02-04T07:20:12;100539.94;;;5.53;74.73
77086;BME280;66014;53.134;18.006;2024-02-04T07:22:39;100540.43;;;5.53;74.58
77086;BME280;66014;53.134;18.006;2024-02-04T07:25:08;100534.30;;;5.55;74.62
77086;BME280;66014;53.134;18.006;2024-02-04T07:27:35;100527.36;;;5.56;74.75
77086;BME280;66014;53.134;18.006;2024-02-04T07:30:05;100522.48;;;5.57;74.73
77086;BME280;66014;53.134;18.006;2024-02-04T07:32:34;100519.54;;;5.58;74.64
77086;BME280;66014;53.134;18.006;2024-02-04T07:35:02;100517.33;;;5.61;74.65
77086;BME280;66014;53.134;18.006;2024-02-04T07:37:29;100518.06;;;5.64;74.65
77086;BME280;66014;53.134;18.006;2024-02-04T07:39:55;100514.89;;;5.68;74.68
77086;BME280;66014;53.134;18.006;2024-02-04T07:42:22;100512.73;;;5.74;74.58
77086;BME280;66014;53.134;18.006;2024-02-04T07:44:48;100506.52;;;5.77;74.64
77086;BME280;66014;53.134;18.006;2024-02-04T07:47:17;100502.13;;;5.83;74.48
77086;BME280;66014;53.134;18.006;2024-02-04T07:49:43;100506.23;;;5.88;74.39
77086;BME280;66014;53.134;18.006;2024-02-04T07:52:10;100499.10;;;5.92;74.38
77086;BME280;66014;53.134;18.006;2024-02-04T07:54:38;100492.10;;;5.97;74.39
77086;BME280;66014;53.134;18.006;2024-02-04T07:57:05;100493.99;;;6.03;74.46
77086;BME280;66014;53.134;18.006;2024-02-04T07:59:31;100498.90;;;6.08;74.31
77086;BME280;66014;53.134;18.006;2024-02-04T08:01:58;100501.58;;;6.13;74.26
77086;BME280;66014;53.134;18.006;2024-02-04T08:04:24;100509.73;;;6.19;74.20
77086;BME280;66014;53.134;18.006;2024-02-04T08:06:51;100513.35;;;6.25;73.98
77086;BME280;66014;53.134;18.006;2024-02-04T08:09:19;100512.20;;;6.28;73.78
77086;BME280;66014;53.134;18.006;2024-02-04T08:11:46;100511.30;;;6.30;73.86
77086;BME280;66014;53.134;18.006;2024-02-04T08:14:30;100511.82;;;6.30;73.99
77086;BME280;66014;53.134;18.006;2024-02-04T08:16:57;100509.86;;;6.30;74.13
77086;BME280;66014;53.134;18.006;2024-02-04T08:19:24;100510.73;;;6.32;74.33
77086;BME280;66014;53.134;18.006;2024-02-04T08:21:52;100507.37;;;6.34;74.05
77086;BME280;66014;53.134;18.006;2024-02-04T08:24:18;100502.57;;;6.33;73.96
77086;BME280;66014;53.134;18.006;2024-02-04T08:26:45;100496.48;;;6.32;74.17
77086;BME280;66014;53.134;18.006;2024-02-04T08:29:12;100494.09;;;6.29;74.44
77086;BME280;66014;53.134;18.006;2024-02-04T08:31:39;100496.56;;;6.29;74.64
77086;BME280;66014;53.134;18.006;2024-02-04T08:34:06;100491.59;;;6.31;74.82
77086;BME280;66014;53.134;18.006;2024-02-04T08:36:36;100491.09;;;6.31;74.91
77086;BME280;66014;53.134;18.006;2024-02-04T08:39:06;100485.44;;;6.31;75.07
77086;BME280;66014;53.134;18.006;2024-02-04T08:41:32;100491.55;;;6.32;75.25
77086;BME280;66014;53.134;18.006;2024-02-04T08:43:59;100494.96;;;6.33;75.33
77086;BME280;66014;53.134;18.006;2024-02-04T08:46:26;100496.38;;;6.35;75.38
77086;BME280;66014;53.134;18.006;2024-02-04T08:48:53;100493.63;;;6.35;75.34
77086;BME280;66014;53.134;18.006;2024-02-04T08:51:20;100498.84;;;6.38;75.36
77086;BME280;66014;53.134;18.006;2024-02-04T08:53:47;100496.94;;;6.41;75.40
77086;BME280;66014;53.134;18.006;2024-02-04T08:56:14;100485.40;;;6.44;75.49
77086;BME280;66014;53.134;18.006;2024-02-04T08:58:41;100478.84;;;6.47;75.28
77086;BME280;66014;53.134;18.006;2024-02-04T09:01:08;100480.45;;;6.49;75.19
77086;BME280;66014;53.134;18.006;2024-02-04T09:03:34;100478.70;;;6.49;75.30
77086;BME280;66014;53.134;18.006;2024-02-04T09:06:01;100479.16;;;6.51;75.43
77086;BME280;66014;53.134;18.006;2024-02-04T09:08:28;100472.91;;;6.53;75.39
77086;BME280;66014;53.134;18.006;2024-02-04T09:10:55;100470.70;;;6.54;75.36
77086;BME280;66014;53.134;18.006;2024-02-04T09:13:23;100460.36;;;6.56;75.43
77086;BME280;66014;53.134;18.006;2024-02-04T09:15:50;100455.02;;;6.58;75.35
77086;BME280;66014;53.134;18.006;2024-02-04T09:18:16;100452.00;;;6.60;75.30
77086;BME280;66014;53.134;18.006;2024-02-04T09:20:43;100449.50;;;6.63;75.36
77086;BME280;66014;53.134;18.006;2024-02-04T09:23:13;100453.03;;;6.68;75.31
77086;BME280;66014;53.134;18.006;2024-02-04T09:25:41;100455.21;;;6.74;75.13
77086;BME280;66014;53.134;18.006;2024-02-04T09:28:08;100458.23;;;6.78;74.94
77086;BME280;66014;53.134;18.006;2024-02-04T09:30:34;100447.23;;;6.80;75.14
77086;BME280;66014;53.134;18.006;2024-02-04T09:33:04;100440.70;;;6.85;75.05
77086;BME280;66014;53.134;18.006;2024-02-04T09:35:30;100440.27;;;6.89;75.04
77086;BME280;66014;53.134;18.006;2024-02-04T09:37:57;100433.84;;;6.93;75.07
77086;BME280;66014;53.134;18.006;2024-02-04T09:40:24;100428.58;;;6.98;74.88
77086;BME280;66014;53.134;18.006;2024-02-04T09:43:01;100428.55;;;7.03;74.92
77086;BME280;66014;53.134;18.006;2024-02-04T09:45:30;100428.69;;;7.05;74.79
77086;BME280;66014;53.134;18.006;2024-02-04T09:48:08;100429.58;;;7.07;74.85
77086;BME280;66014;53.134;18.006;2024-02-04T09:50:35;100427.52;;;7.08;74.72
77086;BME280;66014;53.134;18.006;2024-02-04T09:53:07;100435.09;;;7.08;74.53
77086;BME280;66014;53.134;18.006;2024-02-04T09:58:26;100447.14;;;7.09;74.61
77086;BME280;66014;53.134;18.006;2024-02-04T10:00:53;100437.91;;;7.08;74.46
77086;BME280;66014;53.134;18.006;2024-02-04T10:03:20;100439.40;;;7.07;74.55
77086;BME280;66014;53.134;18.006;2024-02-04T10:05:52;100437.20;;;7.08;74.52
77086;BME280;66014;53.134;18.006;2024-02-04T10:08:19;100432.89;;;7.09;74.26
77086;BME280;66014;53.134;18.006;2024-02-04T10:10:47;100427.20;;;7.07;74.17
77086;BME280;66014;53.134;18.006;2024-02-04T10:13:16;100420.04;;;7.07;74.10
77086;BME280;66014;53.134;18.006;2024-02-04T10:15:44;100411.40;;;7.07;74.10
77086;BME280;66014;53.134;18.006;2024-02-04T10:18:11;100405.64;;;7.08;74.14
77086;BME280;66014;53.134;18.006;2024-02-04T10:20:39;100402.12;;;7.11;74.14
77086;BME280;66014;53.134;18.006;2024-02-04T10:23:05;100401.91;;;7.16;73.97
77086;BME280;66014;53.134;18.006;2024-02-04T10:25:32;100402.00;;;7.22;73.78
77086;BME280;66014;53.134;18.006;2024-02-04T10:27:59;100401.90;;;7.23;73.94
77086;BME280;66014;53.134;18.006;2024-02-04T10:30:26;100401.39;;;7.23;73.97
77086;BME280;66014;53.134;18.006;2024-02-04T10:32:53;100393.21;;;7.23;74.12
77086;BME280;66014;53.134;18.006;2024-02-04T10:35:21;100388.63;;;7.27;74.22
77086;BME280;66014;53.134;18.006;2024-02-04T10:37:50;100384.53;;;7.29;73.64
77086;BME280;66014;53.134;18.006;2024-02-04T10:40:17;100379.67;;;7.31;73.77
77086;BME280;66014;53.134;18.006;2024-02-04T10:42:45;100373.50;;;7.39;73.49
77086;BME280;66014;53.134;18.006;2024-02-04T10:45:12;100369.60;;;7.54;72.88
77086;BME280;66014;53.134;18.006;2024-02-04T10:47:48;100361.55;;;7.74;72.52
77086;BME280;66014;53.134;18.006;2024-02-04T10:50:24;100347.89;;;7.83;72.15
77086;BME280;66014;53.134;18.006;2024-02-04T10:52:54;100346.32;;;7.89;72.07
77086;BME280;66014;53.134;18.006;2024-02-04T10:55:29;100337.80;;;7.95;71.31
77086;BME280;66014;53.134;18.006;2024-02-04T10:57:57;100331.83;;;8.02;71.16
77086;BME280;66014;53.134;18.006;2024-02-04T11:00:24;100327.52;;;8.05;70.98
77086;BME280;66014;53.134;18.006;2024-02-04T11:02:55;100317.84;;;8.08;70.83
77086;BME280;66014;53.134;18.006;2024-02-04T11:11:48;100304.02;;;8.41;70.24
77086;BME280;66014;53.134;18.006;2024-02-04T11:14:17;100304.37;;;8.43;68.99
77086;BME280;66014;53.134;18.006;2024-02-04T11:17:05;100302.73;;;8.37;68.67
77086;BME280;66014;53.134;18.006;2024-02-04T11:29:29;100290.80;;;8.39;69.59
77086;BME280;66014;53.134;18.006;2024-02-04T11:31:58;100291.39;;;8.40;69.46
77086;BME280;66014;53.134;18.006;2024-02-04T11:37:32;100283.75;;;8.59;68.92
77086;BME280;66014;53.134;18.006;2024-02-04T11:40:04;100277.65;;;8.66;68.11
77086;BME280;66014;53.134;18.006;2024-02-04T11:42:35;100275.80;;;8.70;68.01
77086;BME280;66014;53.134;18.006;2024-02-04T11:45:12;100270.45;;;8.66;67.79
77086;BME280;66014;53.134;18.006;2024-02-04T11:47:43;100268.29;;;8.60;67.85
77086;BME280;66014;53.134;18.006;2024-02-04T11:50:10;100271.28;;;8.57;68.46
77086;BME280;66014;53.134;18.006;2024-02-04T11:52:37;100265.31;;;8.55;68.04
77086;BME280;66014;53.134;18.006;2024-02-04T11:55:06;100265.20;;;8.54;67.59
77086;BME280;66014;53.134;18.006;2024-02-04T11:57:33;100264.60;;;8.49;68.13
77086;BME280;66014;53.134;18.006;2024-02-04T12:00:00;100267.78;;;8.40;67.62
77086;BME280;66014;53.134;18.006;2024-02-04T12:02:32;100268.16;;;8.30;68.20
77086;BME280;66014;53.134;18.006;2024-02-04T12:05:02;100262.83;;;8.23;68.79
77086;BME280;66014;53.134;18.006;2024-02-04T12:07:48;100263.63;;;8.18;68.74
77086;BME280;66014;53.134;18.006;2024-02-04T12:11:30;100256.33;;;8.11;68.71
77086;BME280;66014;53.134;18.006;2024-02-04T12:14:26;100263.97;;;8.05;69.24
77086;BME280;66014;53.134;18.006;2024-02-04T12:19:32;100264.02;;;7.92;69.14
77086;BME280;66014;53.134;18.006;2024-02-04T12:21:59;100262.16;;;7.88;69.42
77086;BME280;66014;53.134;18.006;2024-02-04T12:24:25;100267.65;;;7.86;69.23
77086;BME280;66014;53.134;18.006;2024-02-04T12:26:52;100276.61;;;7.83;69.01
77086;BME280;66014;53.134;18.006;2024-02-04T12:29:18;100267.73;;;7.79;69.19
77086;BME280;66014;53.134;18.006;2024-02-04T12:31:45;100268.41;;;7.76;69.44
77086;BME280;66014;53.134;18.006;2024-02-04T12:34:12;100267.13;;;7.73;69.49
77086;BME280;66014;53.134;18.006;2024-02-04T12:36:39;100264.17;;;7.71;69.23
77086;BME280;66014;53.134;18.006;2024-02-04T12:39:09;100264.59;;;7.69;69.08
77086;BME280;66014;53.134;18.006;2024-02-04T12:41:38;100257.96;;;7.69;69.43
77086;BME280;66014;53.134;18.006;2024-02-04T12:44:05;100257.11;;;7.68;69.58
77086;BME280;66014;53.134;18.006;2024-02-04T12:46:32;100257.89;;;7.69;69.44
77086;BME280;66014;53.134;18.006;2024-02-04T12:48:58;100251.00;;;7.69;69.54
77086;BME280;66014;53.134;18.006;2024-02-04T12:51:30;100237.26;;;7.70;69.48
77086;BME280;66014;53.134;18.006;2024-02-04T12:54:08;100232.55;;;7.71;69.45
77086;BME280;66014;53.134;18.006;2024-02-04T12:56:47;100228.02;;;7.73;69.27
77086;BME280;66014;53.134;18.006;2024-02-04T12:59:29;100225.08;;;7.74;69.17
77086;BME280;66014;53.134;18.006;2024-02-04T13:01:58;100217.02;;;7.75;68.93
77086;BME280;66014;53.134;18.006;2024-02-04T13:04:25;100214.10;;;7.74;68.76
77086;BME280;66014;53.134;18.006;2024-02-04T13:06:52;100208.42;;;7.73;68.99
77086;BME280;66014;53.134;18.006;2024-02-04T13:09:19;100209.21;;;7.73;69.27
77086;BME280;66014;53.134;18.006;2024-02-04T13:11:46;100205.80;;;7.75;69.40
77086;BME280;66014;53.134;18.006;2024-02-04T13:14:12;100205.42;;;7.77;69.16
77086;BME280;66014;53.134;18.006;2024-02-04T13:16:39;100200.73;;;7.77;69.02
77086;BME280;66014;53.134;18.006;2024-02-04T13:19:05;100205.56;;;7.74;69.49
77086;BME280;66014;53.134;18.006;2024-02-04T13:21:33;100207.46;;;7.70;69.35
77086;BME280;66014;53.134;18.006;2024-02-04T13:23:59;100200.42;;;7.67;69.50
77086;BME280;66014;53.134;18.006;2024-02-04T13:26:26;100200.29;;;7.65;69.47